sensor_id;sensor_type;location;lat;lon;timestamp;temperature;humidity
26230;DHT22;13960;50.860;4.352;2023-01-19T00:01:36;1.90;99.90
26230;DHT22;13960;50.860;4.352;2023-01-19T00:04:02;1.90;99.90
26230;DHT22;13960;50.860;4.352;2023-01-19T00:06:27;1.80;99.90
26230;DHT22;13960;50.860;4.352;2023-01-19T00:08:53;1.80;99.90
26230;DHT22;13960;50.860;4.352;2023-01-19T00:11:18;1.70;99.90
26230;DHT22;13960;50.860;4.352;2023-01-19T00:13:44;1.70;99.90
26230;DHT22;13960;50.860;4.352;2023-01-19T00:16:18;1.80;99.90
26230;DHT22;13960;50.860;4.352;2023-01-19T00:18:44;1.80;99.90
26230;DHT22;13960;50.860;4.352;2023-01-19T00:21:10;1.90;99.90
26230;DHT22;13960;50.860;4.352;2023-01-19T00:23:35;1.90;99.90
26230;DHT22;13960;50.860;4.352;2023-01-19T00:26:01;1.90;99.90
26230;DHT22;13960;50.860;4.352;2023-01-19T00:28:26;2.00;99.90
26230;DHT22;13960;50.860;4.352;2023-01-19T00:30:52;2.00;99.90
26230;DHT22;13960;50.860;4.352;2023-01-19T00:33:17;1.90;99.90
26230;DHT22;13960;50.860;4.352;2023-01-19T00:35:43;2.00;99.90
26230;DHT22;13960;50.860;4.352;2023-01-19T00:38:09;2.00;99.90
26230;DHT22;13960;50.860;4.352;2023-01-19T00:40:35;1.90;99.90
26230;DHT22;13960;50.860;4.352;2023-01-19T00:43:00;1.80;99.90
26230;DHT22;13960;50.860;4.352;2023-01-19T00:45:27;1.90;99.90
26230;DHT22;13960;50.860;4.352;2023-01-19T00:47:52;1.80;99.90
26230;DHT22;13960;50.860;4.352;2023-01-19T00:50:24;1.80;99.90
26230;DHT22;13960;50.860;4.352;2023-01-19T00:52:50;1.90;99.90
26230;DHT22;13960;50.860;4.352;2023-01-19T00:55:16;1.90;99.90
26230;DHT22;13960;50.860;4.352;2023-01-19T00:57:42;1.90;99.90
26230;DHT22;13960;50.860;4.352;2023-01-19T01:00:08;1.90;99.90
26230;DHT22;13960;50.860;4.352;2023-01-19T01:02:36;1.90;99.90
26230;DHT22;13960;50.860;4.352;2023-01-19T01:05:02;1.90;99.90
26230;DHT22;13960;50.860;4.352;2023-01-19T01:07:28;1.80;99.90
26230;DHT22;13960;50.860;4.352;2023-01-19T01:09:54;1.80;99.90
26230;DHT22;13960;50.860;4.352;2023-01-19T01:12:21;1.80;99.90
26230;DHT22;13960;50.860;4.352;2023-01-19T01:14:47;1.80;99.90
26230;DHT22;13960;50.860;4.352;2023-01-19T01:17:12;1.70;99.90
26230;DHT22;13960;50.860;4.352;2023-01-19T01:19:38;1.60;99.90
26230;DHT22;13960;50.860;4.352;2023-01-19T01:22:04;1.70;99.90
26230;DHT22;13960;50.860;4.352;2023-01-19T01:24:32;1.60;99.90
26230;DHT22;13960;50.860;4.352;2023-01-19T01:26:58;1.60;99.90
26230;DHT22;13960;50.860;4.352;2023-01-19T01:29:23;1.70;99.90
26230;DHT22;13960;50.860;4.352;2023-01-19T01:31:49;1.60;99.90
26230;DHT22;13960;50.860;4.352;2023-01-19T01:34:15;1.60;99.90
26230;DHT22;13960;50.860;4.352;2023-01-19T01:36:41;1.50;99.90
26230;DHT22;13960;50.860;4.352;2023-01-19T01:39:07;1.50;99.90
26230;DHT22;13960;50.860;4.352;2023-01-19T01:41:32;1.40;99.90
26230;DHT22;13960;50.860;4.352;2023-01-19T01:43:59;1.50;99.90
26230;DHT22;13960;50.860;4.352;2023-01-19T01:46:26;1.50;99.90
26230;DHT22;13960;50.860;4.352;2023-01-19T01:49:12;1.40;99.90
26230;DHT22;13960;50.860;4.352;2023-01-19T01:51:40;1.50;99.90
26230;DHT22;13960;50.860;4.352;2023-01-19T01:54:20;1.50;99.90
26230;DHT22;13960;50.860;4.352;2023-01-19T01:56:48;1.40;99.90
26230;DHT22;13960;50.860;4.352;2023-01-19T01:59:21;1.60;99.90
26230;DHT22;13960;50.860;4.352;2023-01-19T02:01:54;1.50;99.90
26230;DHT22;13960;50.860;4.352;2023-01-19T02:04:39;1.40;99.90
26230;DHT22;13960;50.860;4.352;2023-01-19T02:07:07;1.40;99.90
26230;DHT22;13960;50.860;4.352;2023-01-19T02:09:52;1.30;99.90
26230;DHT22;13960;50.860;4.352;2023-01-19T02:12:36;1.30;99.90
26230;DHT22;13960;50.860;4.352;2023-01-19T02:15:20;1.40;99.90
26230;DHT22;13960;50.860;4.352;2023-01-19T02:17:46;1.30;99.90
26230;DHT22;13960;50.860;4.352;2023-01-19T02:20:12;1.40;99.90
26230;DHT22;13960;50.860;4.352;2023-01-19T02:22:47;1.40;99.90
26230;DHT22;13960;50.860;4.352;2023-01-19T02:25:13;1.30;99.90
26230;DHT22;13960;50.860;4.352;2023-01-19T02:27:39;1.30;99.90
26230;DHT22;13960;50.860;4.352;2023-01-19T02:30:05;1.30;99.90
26230;DHT22;13960;50.860;4.352;2023-01-19T02:32:31;1.40;99.90
26230;DHT22;13960;50.860;4.352;2023-01-19T02:34:57;1.30;99.90
26230;DHT22;13960;50.860;4.352;2023-01-19T02:37:22;1.30;99.90
26230;DHT22;13960;50.860;4.352;2023-01-19T02:39:52;1.30;99.90
26230;DHT22;13960;50.860;4.352;2023-01-19T02:42:20;1.40;99.90
26230;DHT22;13960;50.860;4.352;2023-01-19T02:44:48;1.40;99.90
26230;DHT22;13960;50.860;4.352;2023-01-19T02:47:15;1.40;99.90
26230;DHT22;13960;50.860;4.352;2023-01-19T02:49:40;1.50;99.90
26230;DHT22;13960;50.860;4.352;2023-01-19T02:52:07;1.50;99.90
26230;DHT22;13960;50.860;4.352;2023-01-19T03:05:20;1.20;99.90
26230;DHT22;13960;50.860;4.352;2023-01-19T03:07:51;1.20;99.90
26230;DHT22;13960;50.860;4.352;2023-01-19T03:12:57;1.30;99.90
26230;DHT22;13960;50.860;4.352;2023-01-19T03:15:48;1.30;99.90
26230;DHT22;13960;50.860;4.352;2023-01-19T03:18:13;1.40;99.90
26230;DHT22;13960;50.860;4.352;2023-01-19T03:20:40;1.40;99.90
26230;DHT22;13960;50.860;4.352;2023-01-19T03:23:08;1.40;99.90
26230;DHT22;13960;50.860;4.352;2023-01-19T03:25:35;1.40;99.90
26230;DHT22;13960;50.860;4.352;2023-01-19T03:28:02;1.50;99.90
26230;DHT22;13960;50.860;4.352;2023-01-19T03:30:31;1.50;99.90
26230;DHT22;13960;50.860;4.352;2023-01-19T03:33:08;1.60;99.90
26230;DHT22;13960;50.860;4.352;2023-01-19T03:35:37;1.50;99.90
26230;DHT22;13960;50.860;4.352;2023-01-19T03:38:06;1.50;99.90
26230;DHT22;13960;50.860;4.352;2023-01-19T03:40:33;1.50;99.90
26230;DHT22;13960;50.860;4.352;2023-01-19T03:42:59;1.50;99.90
26230;DHT22;13960;50.860;4.352;2023-01-19T03:45:26;1.50;99.90
26230;DHT22;13960;50.860;4.352;2023-01-19T03:47:52;1.50;99.90
26230;DHT22;13960;50.860;4.352;2023-01-19T03:50:28;1.50;99.90
26230;DHT22;13960;50.860;4.352;2023-01-19T03:55:25;1.50;99.90
26230;DHT22;13960;50.860;4.352;2023-01-19T03:57:51;1.60;99.90
26230;DHT22;13960;50.860;4.352;2023-01-19T04:00:16;1.60;99.90
26230;DHT22;13960;50.860;4.352;2023-01-19T04:02:42;1.50;99.90
26230;DHT22;13960;50.860;4.352;2023-01-19T04:05:08;1.60;99.90
26230;DHT22;13960;50.860;4.352;2023-01-19T04:07:33;1.50;99.90
26230;DHT22;13960;50.860;4.352;2023-01-19T04:09:59;1.50;99.90
26230;DHT22;13960;50.860;4.352;2023-01-19T04:12:24;1.50;99.90
26230;DHT22;13960;50.860;4.352;2023-01-19T04:14:50;1.50;99.90
26230;DHT22;13960;50.860;4.352;2023-01-19T04:17:15;1.50;99.90
26230;DHT22;13960;50.860;4.352;2023-01-19T04:19:41;1.40;99.90
26230;DHT22;13960;50.860;4.352;2023-01-19T04:22:07;1.50;99.90
26230;DHT22;13960;50.860;4.352;2023-01-19T04:24:33;1.50;99.90
26230;DHT22;13960;50.860;4.352;2023-01-19T04:26:58;1.40;99.90
26230;DHT22;13960;50.860;4.352;2023-01-19T04:29:24;1.40;99.90
26230;DHT22;13960;50.860;4.352;2023-01-19T04:31:49;1.40;99.90
26230;DHT22;13960;50.860;4.352;2023-01-19T04:34:15;1.50;99.90
26230;DHT22;13960;50.860;4.352;2023-01-19T04:36:40;1.50;99.90
26230;DHT22;13960;50.860;4.352;2023-01-19T04:39:06;1.40;99.90
26230;DHT22;13960;50.860;4.352;2023-01-19T04:41:33;1.40;99.90
26230;DHT22;13960;50.860;4.352;2023-01-19T04:43:58;1.40;99.90
26230;DHT22;13960;50.860;4.352;2023-01-19T04:46:24;1.40;99.90
26230;DHT22;13960;50.860;4.352;2023-01-19T04:48:50;1.40;99.90
26230;DHT22;13960;50.860;4.352;2023-01-19T04:51:15;1.40;99.90
26230;DHT22;13960;50.860;4.352;2023-01-19T04:53:41;1.40;99.90
26230;DHT22;13960;50.860;4.352;2023-01-19T04:56:06;1.50;99.90
26230;DHT22;13960;50.860;4.352;2023-01-19T04:58:32;1.40;99.90
26230;DHT22;13960;50.860;4.352;2023-01-19T05:00:57;1.40;99.90
26230;DHT22;13960;50.860;4.352;2023-01-19T05:03:23;1.30;99.90
26230;DHT22;13960;50.860;4.352;2023-01-19T05:05:49;1.40;99.90
26230;DHT22;13960;50.860;4.352;2023-01-19T05:08:14;1.30;99.90
26230;DHT22;13960;50.860;4.352;2023-01-19T05:10:40;1.30;99.90
26230;DHT22;13960;50.860;4.352;2023-01-19T05:13:05;1.40;99.90
26230;DHT22;13960;50.860;4.352;2023-01-19T05:15:31;1.30;99.90
26230;DHT22;13960;50.860;4.352;2023-01-19T05:17:56;1.30;99.90
26230;DHT22;13960;50.860;4.352;2023-01-19T05:20:25;1.40;99.90
26230;DHT22;13960;50.860;4.352;2023-01-19T05:22:51;1.40;99.90
26230;DHT22;13960;50.860;4.352;2023-01-19T05:25:16;1.40;99.90
26230;DHT22;13960;50.860;4.352;2023-01-19T05:27:42;1.40;99.90
26230;DHT22;13960;50.860;4.352;2023-01-19T05:30:08;1.40;99.90
26230;DHT22;13960;50.860;4.352;2023-01-19T05:32:33;1.40;99.90
26230;DHT22;13960;50.860;4.352;2023-01-19T05:34:59;1.40;99.90
26230;DHT22;13960;50.860;4.352;2023-01-19T05:37:25;1.40;99.90
26230;DHT22;13960;50.860;4.352;2023-01-19T05:39:50;1.40;99.90
26230;DHT22;13960;50.860;4.352;2023-01-19T05:42:16;1.40;99.90
26230;DHT22;13960;50.860;4.352;2023-01-19T05:44:41;1.40;99.90
26230;DHT22;13960;50.860;4.352;2023-01-19T05:47:07;1.40;99.90
26230;DHT22;13960;50.860;4.352;2023-01-19T05:49:32;1.40;99.90
26230;DHT22;13960;50.860;4.352;2023-01-19T05:51:59;1.40;99.90
26230;DHT22;13960;50.860;4.352;2023-01-19T05:54:24;1.40;99.90
26230;DHT22;13960;50.860;4.352;2023-01-19T05:56:50;1.40;99.90
26230;DHT22;13960;50.860;4.352;2023-01-19T05:59:15;1.30;99.90
26230;DHT22;13960;50.860;4.352;2023-01-19T06:01:49;1.30;99.90
26230;DHT22;13960;50.860;4.352;2023-01-19T06:04:14;1.40;99.90
26230;DHT22;13960;50.860;4.352;2023-01-19T06:06:40;1.40;99.90
26230;DHT22;13960;50.860;4.352;2023-01-19T06:09:05;1.40;99.90
26230;DHT22;13960;50.860;4.352;2023-01-19T06:11:32;1.40;99.90
26230;DHT22;13960;50.860;4.352;2023-01-19T06:13:57;1.40;99.90
26230;DHT22;13960;50.860;4.352;2023-01-19T06:16:23;1.40;99.90
26230;DHT22;13960;50.860;4.352;2023-01-19T06:18:48;1.40;99.90
26230;DHT22;13960;50.860;4.352;2023-01-19T06:21:14;1.40;99.90
26230;DHT22;13960;50.860;4.352;2023-01-19T06:23:39;1.50;99.90
26230;DHT22;13960;50.860;4.352;2023-01-19T06:26:05;1.60;99.90
26230;DHT22;13960;50.860;4.352;2023-01-19T06:28:30;1.60;99.90
26230;DHT22;13960;50.860;4.352;2023-01-19T06:30:56;1.60;99.90
26230;DHT22;13960;50.860;4.352;2023-01-19T06:33:22;1.50;99.90
26230;DHT22;13960;50.860;4.352;2023-01-19T06:35:48;1.60;99.90
26230;DHT22;13960;50.860;4.352;2023-01-19T06:38:14;1.50;99.90
26230;DHT22;13960;50.860;4.352;2023-01-19T06:40:41;1.40;99.90
26230;DHT22;13960;50.860;4.352;2023-01-19T06:43:07;1.40;99.90
26230;DHT22;13960;50.860;4.352;2023-01-19T06:45:32;1.40;99.90
26230;DHT22;13960;50.860;4.352;2023-01-19T06:47:58;1.40;99.90
26230;DHT22;13960;50.860;4.352;2023-01-19T06:50:23;1.50;99.90
26230;DHT22;13960;50.860;4.352;2023-01-19T06:52:50;1.50;99.90
26230;DHT22;13960;50.860;4.352;2023-01-19T06:55:15;1.50;99.90
26230;DHT22;13960;50.860;4.352;2023-01-19T06:57:41;1.50;99.90
26230;DHT22;13960;50.860;4.352;2023-01-19T07:00:07;1.50;99.90
26230;DHT22;13960;50.860;4.352;2023-01-19T07:02:33;1.50;99.90
26230;DHT22;13960;50.860;4.352;2023-01-19T07:04:59;1.40;99.90
26230;DHT22;13960;50.860;4.352;2023-01-19T07:07:25;1.40;99.90
26230;DHT22;13960;50.860;4.352;2023-01-19T07:09:50;1.40;99.90
26230;DHT22;13960;50.860;4.352;2023-01-19T07:12:16;1.40;99.90
26230;DHT22;13960;50.860;4.352;2023-01-19T07:14:41;1.40;99.90
26230;DHT22;13960;50.860;4.352;2023-01-19T07:17:07;1.40;99.90
26230;DHT22;13960;50.860;4.352;2023-01-19T07:19:33;1.40;99.90
26230;DHT22;13960;50.860;4.352;2023-01-19T07:22:00;1.40;99.90
26230;DHT22;13960;50.860;4.352;2023-01-19T07:24:25;1.40;99.90
26230;DHT22;13960;50.860;4.352;2023-01-19T07:26:51;1.40;99.90
26230;DHT22;13960;50.860;4.352;2023-01-19T07:29:17;1.40;99.90
26230;DHT22;13960;50.860;4.352;2023-01-19T07:31:42;1.40;99.90
26230;DHT22;13960;50.860;4.352;2023-01-19T07:34:08;1.40;99.90
26230;DHT22;13960;50.860;4.352;2023-01-19T07:36:33;1.50;99.90
26230;DHT22;13960;50.860;4.352;2023-01-19T07:39:00;1.50;99.90
26230;DHT22;13960;50.860;4.352;2023-01-19T07:41:26;1.50;99.90
26230;DHT22;13960;50.860;4.352;2023-01-19T07:43:51;1.50;99.90
26230;DHT22;13960;50.860;4.352;2023-01-19T07:46:17;1.50;99.90
26230;DHT22;13960;50.860;4.352;2023-01-19T07:48:43;1.50;99.90
26230;DHT22;13960;50.860;4.352;2023-01-19T07:51:08;1.40;99.90
26230;DHT22;13960;50.860;4.352;2023-01-19T07:53:36;1.50;99.90
26230;DHT22;13960;50.860;4.352;2023-01-19T07:56:02;1.50;99.90
26230;DHT22;13960;50.860;4.352;2023-01-19T07:58:31;1.40;99.90
26230;DHT22;13960;50.860;4.352;2023-01-19T08:00:57;1.50;99.90
26230;DHT22;13960;50.860;4.352;2023-01-19T08:03:22;1.50;99.90
26230;DHT22;13960;50.860;4.352;2023-01-19T08:05:48;1.50;99.90
26230;DHT22;13960;50.860;4.352;2023-01-19T08:08:14;1.50;99.90
26230;DHT22;13960;50.860;4.352;2023-01-19T08:10:40;1.50;99.90
26230;DHT22;13960;50.860;4.352;2023-01-19T08:13:07;1.60;99.90
26230;DHT22;13960;50.860;4.352;2023-01-19T08:15:32;1.60;99.90
26230;DHT22;13960;50.860;4.352;2023-01-19T08:17:59;1.50;99.90
26230;DHT22;13960;50.860;4.352;2023-01-19T08:20:25;1.50;99.90
26230;DHT22;13960;50.860;4.352;2023-01-19T08:22:51;1.50;99.90
26230;DHT22;13960;50.860;4.352;2023-01-19T08:25:34;1.50;99.90
26230;DHT22;13960;50.860;4.352;2023-01-19T08:27:59;1.50;99.90
26230;DHT22;13960;50.860;4.352;2023-01-19T08:30:25;1.50;99.90
26230;DHT22;13960;50.860;4.352;2023-01-19T08:32:54;1.50;99.90
26230;DHT22;13960;50.860;4.352;2023-01-19T08:35:31;1.60;99.90
26230;DHT22;13960;50.860;4.352;2023-01-19T08:37:56;1.50;99.90
26230;DHT22;13960;50.860;4.352;2023-01-19T08:40:26;1.50;99.90
26230;DHT22;13960;50.860;4.352;2023-01-19T08:42:51;1.60;99.90
26230;DHT22;13960;50.860;4.352;2023-01-19T08:45:17;1.60;99.90
26230;DHT22;13960;50.860;4.352;2023-01-19T08:47:43;1.60;99.90
26230;DHT22;13960;50.860;4.352;2023-01-19T08:50:08;1.60;99.90
26230;DHT22;13960;50.860;4.352;2023-01-19T08:52:35;1.60;99.90
26230;DHT22;13960;50.860;4.352;2023-01-19T08:55:00;1.60;99.90
26230;DHT22;13960;50.860;4.352;2023-01-19T08:57:26;1.60;99.90
26230;DHT22;13960;50.860;4.352;2023-01-19T08:59:51;1.60;99.90
26230;DHT22;13960;50.860;4.352;2023-01-19T09:02:17;1.60;99.90
26230;DHT22;13960;50.860;4.352;2023-01-19T09:04:42;1.60;99.90
26230;DHT22;13960;50.860;4.352;2023-01-19T09:07:08;1.60;99.90
26230;DHT22;13960;50.860;4.352;2023-01-19T09:09:33;1.60;99.90
26230;DHT22;13960;50.860;4.352;2023-01-19T09:12:02;1.70;99.90
26230;DHT22;13960;50.860;4.352;2023-01-19T09:14:27;1.60;99.90
26230;DHT22;13960;50.860;4.352;2023-01-19T09:16:53;1.60;99.90
26230;DHT22;13960;50.860;4.352;2023-01-19T09:19:20;1.70;99.90
26230;DHT22;13960;50.860;4.352;2023-01-19T09:21:45;1.70;99.90
26230;DHT22;13960;50.860;4.352;2023-01-19T09:24:11;1.70;99.90
26230;DHT22;13960;50.860;4.352;2023-01-19T09:26:36;1.60;99.90
26230;DHT22;13960;50.860;4.352;2023-01-19T09:29:04;1.60;99.90
26230;DHT22;13960;50.860;4.352;2023-01-19T09:31:30;1.60;99.90
26230;DHT22;13960;50.860;4.352;2023-01-19T09:33:55;1.60;99.90
26230;DHT22;13960;50.860;4.352;2023-01-19T09:36:21;1.60;99.90
26230;DHT22;13960;50.860;4.352;2023-01-19T09:38:46;1.60;99.90
26230;DHT22;13960;50.860;4.352;2023-01-19T09:41:17;1.70;99.90
26230;DHT22;13960;50.860;4.352;2023-01-19T09:43:45;1.80;99.90
26230;DHT22;13960;50.860;4.352;2023-01-19T09:46:13;1.80;99.90
26230;DHT22;13960;50.860;4.352;2023-01-19T09:48:44;1.90;99.90
26230;DHT22;13960;50.860;4.352;2023-01-19T09:51:15;1.80;99.90
26230;DHT22;13960;50.860;4.352;2023-01-19T09:53:46;1.90;99.90
26230;DHT22;13960;50.860;4.352;2023-01-19T09:56:16;1.80;99.90
26230;DHT22;13960;50.860;4.352;2023-01-19T09:58:41;1.90;99.90
26230;DHT22;13960;50.860;4.352;2023-01-19T10:01:57;1.80;99.90
26230;DHT22;13960;50.860;4.352;2023-01-19T10:03:59;1.80;99.90
26230;DHT22;13960;50.860;4.352;2023-01-19T10:06:29;1.90;99.90
26230;DHT22;13960;50.860;4.352;2023-01-19T10:08:59;1.70;99.90
26230;DHT22;13960;50.860;4.352;2023-01-19T10:13:53;1.80;99.90
26230;DHT22;13960;50.860;4.352;2023-01-19T10:16:33;1.80;99.90
26230;DHT22;13960;50.860;4.352;2023-01-19T10:21:46;1.90;99.90
26230;DHT22;13960;50.860;4.352;2023-01-19T10:24:22;1.80;99.90
26230;DHT22;13960;50.860;4.352;2023-01-19T10:26:50;1.80;99.90
26230;DHT22;13960;50.860;4.352;2023-01-19T10:29:21;1.90;99.90
26230;DHT22;13960;50.860;4.352;2023-01-19T10:31:47;1.80;99.90
26230;DHT22;13960;50.860;4.352;2023-01-19T10:34:13;1.90;99.90
26230;DHT22;13960;50.860;4.352;2023-01-19T10:36:42;1.80;99.90
26230;DHT22;13960;50.860;4.352;2023-01-19T10:39:09;1.80;99.90
26230;DHT22;13960;50.860;4.352;2023-01-19T10:41:41;1.70;99.90
26230;DHT22;13960;50.860;4.352;2023-01-19T10:44:07;1.80;99.90
26230;DHT22;13960;50.860;4.352;2023-01-19T10:46:44;1.90;99.90
26230;DHT22;13960;50.860;4.352;2023-01-19T10:54:42;1.80;99.90
26230;DHT22;13960;50.860;4.352;2023-01-19T10:57:08;1.90;99.90
26230;DHT22;13960;50.860;4.352;2023-01-19T10:59:35;2.00;99.90
26230;DHT22;13960;50.860;4.352;2023-01-19T11:02:18;1.90;99.90
26230;DHT22;13960;50.860;4.352;2023-01-19T11:04:45;2.00;99.90
26230;DHT22;13960;50.860;4.352;2023-01-19T11:09:38;2.40;99.90
26230;DHT22;13960;50.860;4.352;2023-01-19T11:12:03;2.40;99.90
26230;DHT22;13960;50.860;4.352;2023-01-19T11:14:29;2.50;99.90
26230;DHT22;13960;50.860;4.352;2023-01-19T11:16:55;2.30;99.90
26230;DHT22;13960;50.860;4.352;2023-01-19T11:19:25;2.20;99.90
26230;DHT22;13960;50.860;4.352;2023-01-19T11:21:52;2.10;99.90
26230;DHT22;13960;50.860;4.352;2023-01-19T11:24:31;2.30;99.90
26230;DHT22;13960;50.860;4.352;2023-01-19T11:26:57;2.20;99.90
26230;DHT22;13960;50.860;4.352;2023-01-19T11:29:27;2.20;99.90
26230;DHT22;13960;50.860;4.352;2023-01-19T11:31:53;1.90;99.90
26230;DHT22;13960;50.860;4.352;2023-01-19T11:37:00;2.20;99.90
26230;DHT22;13960;50.860;4.352;2023-01-19T11:39:27;2.20;99.90
26230;DHT22;13960;50.860;4.352;2023-01-19T11:42:00;2.20;99.90
26230;DHT22;13960;50.860;4.352;2023-01-19T11:44:31;2.40;99.90
26230;DHT22;13960;50.860;4.352;2023-01-19T11:46:58;2.20;99.90
26230;DHT22;13960;50.860;4.352;2023-01-19T11:49:43;2.20;99.90
26230;DHT22;13960;50.860;4.352;2023-01-19T11:54:46;2.20;99.90
26230;DHT22;13960;50.860;4.352;2023-01-19T11:57:14;2.10;99.90
26230;DHT22;13960;50.860;4.352;2023-01-19T11:59:41;2.10;99.90
26230;DHT22;13960;50.860;4.352;2023-01-19T12:02:14;2.20;99.90
26230;DHT22;13960;50.860;4.352;2023-01-19T12:04:41;2.40;99.90
26230;DHT22;13960;50.860;4.352;2023-01-19T12:07:08;2.40;99.90
26230;DHT22;13960;50.860;4.352;2023-01-19T12:09:55;2.40;99.90
26230;DHT22;13960;50.860;4.352;2023-01-19T12:12:32;2.20;99.90
26230;DHT22;13960;50.860;4.352;2023-01-19T12:17:47;2.20;99.90
26230;DHT22;13960;50.860;4.352;2023-01-19T12:20:26;2.30;99.90
26230;DHT22;13960;50.860;4.352;2023-01-19T12:23:36;2.30;99.90
26230;DHT22;13960;50.860;4.352;2023-01-19T12:28:19;2.40;99.90
26230;DHT22;13960;50.860;4.352;2023-01-19T12:30:47;2.40;99.90
26230;DHT22;13960;50.860;4.352;2023-01-19T12:33:20;2.40;99.90
26230;DHT22;13960;50.860;4.352;2023-01-19T12:41:18;2.70;99.90
26230;DHT22;13960;50.860;4.352;2023-01-19T12:44:13;2.60;99.90
26230;DHT22;13960;50.860;4.352;2023-01-19T12:46:33;2.60;99.90
26230;DHT22;13960;50.860;4.352;2023-01-19T12:49:05;2.60;99.90
26230;DHT22;13960;50.860;4.352;2023-01-19T12:51:31;2.60;99.90
26230;DHT22;13960;50.860;4.352;2023-01-19T12:53:57;2.70;99.90
26230;DHT22;13960;50.860;4.352;2023-01-19T12:56:27;2.80;99.90
26230;DHT22;13960;50.860;4.352;2023-01-19T12:58:53;2.70;99.90
26230;DHT22;13960;50.860;4.352;2023-01-19T13:01:18;2.70;99.90
26230;DHT22;13960;50.860;4.352;2023-01-19T13:09:27;2.70;99.90
26230;DHT22;13960;50.860;4.352;2023-01-19T13:14:38;2.70;99.90
26230;DHT22;13960;50.860;4.352;2023-01-19T13:17:05;2.70;99.90
26230;DHT22;13960;50.860;4.352;2023-01-19T13:19:40;2.80;99.90
26230;DHT22;13960;50.860;4.352;2023-01-19T13:25:10;2.90;99.90
26230;DHT22;13960;50.860;4.352;2023-01-19T13:27:36;3.00;99.90
26230;DHT22;13960;50.860;4.352;2023-01-19T13:30:08;3.10;99.90
26230;DHT22;13960;50.860;4.352;2023-01-19T13:32:33;3.10;99.90
26230;DHT22;13960;50.860;4.352;2023-01-19T13:34:59;3.10;99.90
26230;DHT22;13960;50.860;4.352;2023-01-19T13:37:36;3.10;99.90
26230;DHT22;13960;50.860;4.352;2023-01-19T13:40:03;3.10;99.90
26230;DHT22;13960;50.860;4.352;2023-01-19T13:42:32;3.20;99.90
26230;DHT22;13960;50.860;4.352;2023-01-19T13:45:00;3.30;99.90
26230;DHT22;13960;50.860;4.352;2023-01-19T13:47:31;3.40;99.90
26230;DHT22;13960;50.860;4.352;2023-01-19T13:49:58;3.30;99.90
26230;DHT22;13960;50.860;4.352;2023-01-19T13:52:25;3.40;99.90
26230;DHT22;13960;50.860;4.352;2023-01-19T13:54:55;3.30;99.90
26230;DHT22;13960;50.860;4.352;2023-01-19T13:57:28;3.30;99.90
26230;DHT22;13960;50.860;4.352;2023-01-19T14:00:04;3.40;99.90
26230;DHT22;13960;50.860;4.352;2023-01-19T14:02:30;3.30;99.90
26230;DHT22;13960;50.860;4.352;2023-01-19T14:04:56;3.30;99.90
26230;DHT22;13960;50.860;4.352;2023-01-19T14:07:22;3.30;99.90
26230;DHT22;13960;50.860;4.352;2023-01-19T14:10:03;3.30;99.90
26230;DHT22;13960;50.860;4.352;2023-01-19T14:12:28;3.30;99.90
26230;DHT22;13960;50.860;4.352;2023-01-19T14:14:56;3.30;99.90
26230;DHT22;13960;50.860;4.352;2023-01-19T14:17:23;3.30;99.90
26230;DHT22;13960;50.860;4.352;2023-01-19T14:19:49;3.40;99.90
26230;DHT22;13960;50.860;4.352;2023-01-19T14:22:14;3.60;99.90
26230;DHT22;13960;50.860;4.352;2023-01-19T14:24:40;3.70;99.90
26230;DHT22;13960;50.860;4.352;2023-01-19T14:27:14;3.60;99.90
26230;DHT22;13960;50.860;4.352;2023-01-19T14:29:42;3.70;99.90
26230;DHT22;13960;50.860;4.352;2023-01-19T14:32:20;3.70;99.90
26230;DHT22;13960;50.860;4.352;2023-01-19T14:37:18;3.60;99.90
26230;DHT22;13960;50.860;4.352;2023-01-19T14:39:45;3.50;99.90
26230;DHT22;13960;50.860;4.352;2023-01-19T14:42:13;3.40;99.90
26230;DHT22;13960;50.860;4.352;2023-01-19T14:44:39;3.50;99.90
26230;DHT22;13960;50.860;4.352;2023-01-19T14:47:05;3.70;99.90
26230;DHT22;13960;50.860;4.352;2023-01-19T14:49:38;3.80;99.90
26230;DHT22;13960;50.860;4.352;2023-01-19T14:52:05;3.90;99.90
26230;DHT22;13960;50.860;4.352;2023-01-19T14:54:36;3.80;99.90
26230;DHT22;13960;50.860;4.352;2023-01-19T14:57:02;3.80;99.90
26230;DHT22;13960;50.860;4.352;2023-01-19T14:59:28;3.80;99.90
26230;DHT22;13960;50.860;4.352;2023-01-19T15:01:53;3.80;99.90
26230;DHT22;13960;50.860;4.352;2023-01-19T15:04:19;4.00;99.90
26230;DHT22;13960;50.860;4.352;2023-01-19T15:06:44;4.50;99.90
26230;DHT22;13960;50.860;4.352;2023-01-19T15:09:13;4.60;99.90
26230;DHT22;13960;50.860;4.352;2023-01-19T15:11:39;4.30;99.90
26230;DHT22;13960;50.860;4.352;2023-01-19T15:14:05;4.10;99.90
26230;DHT22;13960;50.860;4.352;2023-01-19T15:16:31;3.90;99.90
26230;DHT22;13960;50.860;4.352;2023-01-19T15:18:57;3.70;99.90
26230;DHT22;13960;50.860;4.352;2023-01-19T15:21:22;3.80;99.90
26230;DHT22;13960;50.860;4.352;2023-01-19T15:23:50;3.90;99.90
26230;DHT22;13960;50.860;4.352;2023-01-19T15:26:17;3.90;99.90
26230;DHT22;13960;50.860;4.352;2023-01-19T15:28:43;3.80;99.90
26230;DHT22;13960;50.860;4.352;2023-01-19T15:31:11;3.60;99.90
26230;DHT22;13960;50.860;4.352;2023-01-19T15:33:37;3.50;99.90
26230;DHT22;13960;50.860;4.352;2023-01-19T15:36:03;3.40;99.90
26230;DHT22;13960;50.860;4.352;2023-01-19T15:38:29;3.20;99.90
26230;DHT22;13960;50.860;4.352;2023-01-19T15:40:55;3.20;99.90
26230;DHT22;13960;50.860;4.352;2023-01-19T15:43:21;3.10;99.90
26230;DHT22;13960;50.860;4.352;2023-01-19T15:45:47;3.00;99.90
26230;DHT22;13960;50.860;4.352;2023-01-19T15:48:14;2.90;99.90
26230;DHT22;13960;50.860;4.352;2023-01-19T15:50:41;3.00;99.90
26230;DHT22;13960;50.860;4.352;2023-01-19T15:53:11;3.00;99.90
26230;DHT22;13960;50.860;4.352;2023-01-19T15:55:37;3.00;99.90
26230;DHT22;13960;50.860;4.352;2023-01-19T15:58:03;2.90;99.90
26230;DHT22;13960;50.860;4.352;2023-01-19T16:00:29;2.90;99.90
26230;DHT22;13960;50.860;4.352;2023-01-19T16:02:55;2.90;99.90
26230;DHT22;13960;50.860;4.352;2023-01-19T16:05:21;2.90;99.90
26230;DHT22;13960;50.860;4.352;2023-01-19T16:07:47;2.90;99.90
26230;DHT22;13960;50.860;4.352;2023-01-19T16:10:12;2.90;99.90
26230;DHT22;13960;50.860;4.352;2023-01-19T16:12:41;2.90;99.90
26230;DHT22;13960;50.860;4.352;2023-01-19T16:15:07;3.00;99.90
26230;DHT22;13960;50.860;4.352;2023-01-19T16:17:32;2.90;99.90
26230;DHT22;13960;50.860;4.352;2023-01-19T16:19:58;2.80;99.90
26230;DHT22;13960;50.860;4.352;2023-01-19T16:22:23;2.80;99.90
26230;DHT22;13960;50.860;4.352;2023-01-19T16:24:49;2.60;99.90
26230;DHT22;13960;50.860;4.352;2023-01-19T16:27:17;2.60;99.90
26230;DHT22;13960;50.860;4.352;2023-01-19T16:29:42;2.60;99.90
26230;DHT22;13960;50.860;4.352;2023-01-19T16:32:08;2.60;99.90
26230;DHT22;13960;50.860;4.352;2023-01-19T16:34:33;2.50;99.90
26230;DHT22;13960;50.860;4.352;2023-01-19T16:36:59;2.60;99.90
26230;DHT22;13960;50.860;4.352;2023-01-19T16:39:24;2.60;99.90
26230;DHT22;13960;50.860;4.352;2023-01-19T16:41:50;2.50;99.90
26230;DHT22;13960;50.860;4.352;2023-01-19T16:44:15;2.60;99.90
26230;DHT22;13960;50.860;4.352;2023-01-19T16:46:42;2.50;99.90